Time;durP1;ratioP1;P1;durP2;ratioP2;P2;SDS_P1;SDS_P2;PMS_P1;PMS_P2;Temp;Humidity;BMP_temperature;BMP_pressure;BME280_temperature;BME280_humidity;BME280_pressure;Samples;Min_cycle;Max_cycle;Signal;HPM_P1;HPM_P2
2021/10/26 00:01:48;;;;;;;5.23;4.73;;;;;;;21.64;60.35;97941.66;5028447;28;20201;-63
2021/10/26 00:04:14;;;;;;;4.90;4.50;;;;;;;21.64;59.72;97935.66;5028711;28;20748;-64
2021/10/26 00:06:41;;;;;;;4.80;4.40;;;;;;;21.63;59.89;97941.59;5046050;28;20228;-63
2021/10/26 00:09:08;;;;;;;4.73;4.33;;;;;;;21.64;60.08;97935.66;5045422;28;20215;-63
2021/10/26 00:11:34;;;;;;;5.30;4.80;;;;;;;21.63;60.24;97929.69;5045153;28;20260;-64
2021/10/26 00:14:01;;;;;;;5.57;5.07;;;;;;;21.02;60.18;97828.59;5045506;28;20312;-63
2021/10/26 00:16:28;;;;;;;6.10;5.50;;;;;;;21.63;60.21;97931.38;5046051;28;20260;-63
2021/10/26 00:18:55;;;;;;;5.30;4.80;;;;;;;21.64;60.31;97928.88;5022673;28;20201;-63
2021/10/26 00:21:21;;;;;;;5.60;5.00;;;;;;;21.65;60.20;97924.63;5044737;28;20209;-64
2021/10/26 00:23:48;;;;;;;5.50;5.00;;;;;;;20.54;60.20;97737.41;5045630;28;20221;-64
2021/10/26 00:26:15;;;;;;;5.07;4.57;;;;;;;21.64;60.10;97933.09;5046311;28;20241;-63
2021/10/26 00:28:42;;;;;;;4.90;4.50;;;;;;;21.64;60.52;97933.97;5046257;28;20292;-65
2021/10/26 00:31:08;;;;;;;5.30;4.80;;;;;;;21.56;60.31;97919.19;5044566;28;20300;-63
2021/10/26 00:33:35;;;;;;;5.10;4.60;;;;;;;21.33;60.49;97895.38;5046366;28;20557;-63
2021/10/26 00:36:02;;;;;;;5.30;4.90;;;;;;;21.65;60.12;97939.97;5045620;28;20205;-65
2021/10/26 00:38:29;;;;;;;5.23;4.77;;;;;;;21.65;60.29;97939.97;5045180;28;20658;-65
2021/10/26 00:40:57;;;;;;;5.13;4.73;;;;;;;21.64;60.39;97936.53;5043535;28;20232;-64
2021/10/26 00:43:23;;;;;;;5.70;5.10;;;;;;;21.64;60.74;97936.53;5028164;28;20331;-63
2021/10/26 00:45:50;;;;;;;5.37;4.87;;;;;;;21.64;60.13;97931.41;5027372;28;20288;-63
2021/10/26 00:48:17;;;;;;;5.53;5.03;;;;;;;21.64;60.87;97936.53;5046730;28;20212;-63
2021/10/26 00:50:43;;;;;;;5.20;4.80;;;;;;;21.48;60.30;97906.13;5044589;28;20334;-62
2021/10/26 00:53:10;;;;;;;5.40;4.90;;;;;;;21.64;60.63;97925.44;5039116;28;20300;-63
2021/10/26 00:55:37;;;;;;;5.10;4.60;;;;;;;21.52;60.21;97900.31;5043965;28;20251;-64
2021/10/26 00:58:03;;;;;;;4.97;4.57;;;;;;;21.44;60.50;97893.19;5027911;28;20642;-64
2021/10/26 01:00:30;;;;;;;5.07;4.57;;;;;;;21.63;60.53;97922.03;5024779;28;20284;-63
2021/10/26 01:02:57;;;;;;;5.30;4.80;;;;;;;21.64;60.29;97926.31;5042905;28;20201;-64
2021/10/26 01:05:24;;;;;;;5.17;4.67;;;;;;;21.56;60.20;97911.53;5039450;28;20224;-64
2021/10/26 01:07:50;;;;;;;5.30;4.80;;;;;;;21.64;59.93;97923.75;5045044;28;20213;-63
2021/10/26 01:10:17;;;;;;;5.27;4.77;;;;;;;21.17;60.10;97847.03;5027954;28;20240;-63
2021/10/26 01:12:44;;;;;;;5.30;4.80;;;;;;;21.65;60.51;97925.47;5027421;28;20251;-61
2021/10/26 01:15:10;;;;;;;5.40;4.90;;;;;;;21.65;60.43;97919.50;5027879;28;20784;-63
2021/10/26 01:17:37;;;;;;;6.13;5.07;;;;;;;21.65;60.34;97925.47;5046101;28;20312;-64
2021/10/26 01:20:04;;;;;;;5.37;4.87;;;;;;;20.68;60.31;97764.31;5045486;28;20284;-63
2021/10/26 01:22:34;;;;;;;5.70;5.10;;;;;;;21.65;60.51;97929.75;5043323;28;20348;-61
2021/10/26 01:25:01;;;;;;;5.93;5.33;;;;;;;21.66;60.08;97936.59;5044996;28;20216;-63
2021/10/26 01:27:27;;;;;;;5.13;4.70;;;;;;;21.60;60.55;97929.59;5045650;28;20283;-63
2021/10/26 01:29:54;;;;;;;5.57;5.07;;;;;;;21.65;60.39;97947.66;5043771;28;20244;-63
2021/10/26 01:32:21;;;;;;;5.43;4.93;;;;;;;21.65;60.55;97938.28;5046729;28;20652;-63
2021/10/26 01:34:47;;;;;;;5.37;4.87;;;;;;;21.66;60.76;97934.03;5043463;28;20256;-63
2021/10/26 01:37:14;;;;;;;5.20;4.70;;;;;;;21.65;60.87;97940.81;5049277;28;20446;-63
2021/10/26 01:39:40;;;;;;;5.37;4.87;;;;;;;21.30;60.45;97885.03;5049553;28;20292;-63
2021/10/26 01:42:07;;;;;;;5.47;4.97;;;;;;;21.65;60.39;97943.38;5048641;28;20254;-63
2021/10/26 01:44:34;;;;;;;4.90;4.50;;;;;;;21.65;60.42;97948.50;5047717;28;20675;-63
2021/10/26 01:47:00;;;;;;;5.77;5.17;;;;;;;21.65;61.30;97950.22;5048578;28;20255;-63
2021/10/26 01:49:27;;;;;;;5.40;4.90;;;;;;;21.65;60.50;97953.63;5048984;28;20292;-63
2021/10/26 01:51:54;;;;;;;5.20;4.80;;;;;;;21.65;60.43;97945.94;5048472;28;20670;-63
2021/10/26 01:54:20;;;;;;;5.13;4.63;;;;;;;21.65;60.63;97945.09;5047785;28;20328;-64
2021/10/26 01:56:47;;;;;;;5.27;4.77;;;;;;;21.65;60.52;97942.53;5046867;28;20312;-63
2021/10/26 01:59:13;;;;;;;5.10;4.70;;;;;;;21.55;60.33;97931.09;5048996;28;20236;-63
2021/10/26 02:01:40;;;;;;;5.57;4.83;;;;;;;21.66;60.53;97949.38;5031160;28;20232;-63
2021/10/26 02:04:07;;;;;;;5.17;4.70;;;;;;;21.65;60.37;97945.94;5048191;28;20243;-65
2021/10/26 02:06:33;;;;;;;5.57;5.03;;;;;;;21.65;60.47;97952.75;5048699;28;20484;-63
2021/10/26 02:09:00;;;;;;;5.53;5.07;;;;;;;21.55;60.35;97932.78;5049048;28;20255;-64
2021/10/26 02:11:27;;;;;;;5.30;4.90;;;;;;;21.67;60.59;97958.78;5048967;28;20207;-63
2021/10/26 02:13:53;;;;;;;4.93;4.53;;;;;;;20.85;60.57;97814.34;5046947;28;20221;-64
2021/10/26 02:16:20;;;;;;;5.30;4.80;;;;;;;20.64;60.47;97782.91;5048455;28;20237;-63
2021/10/26 02:18:47;;;;;;;5.50;5.00;;;;;;;21.67;60.62;97957.09;5046814;28;20563;-64
2021/10/26 02:21:17;;;;;;;4.73;4.33;;;;;;;21.67;60.51;97956.22;5042898;28;20258;-63
2021/10/26 02:23:43;;;;;;;5.33;4.83;;;;;;;21.67;60.45;97946.00;5047231;28;20263;-63
2021/10/26 02:26:12;;;;;;;5.27;4.77;;;;;;;21.57;60.55;97933.72;5046672;28;20723;-62
2021/10/26 02:28:38;;;;;;;4.70;4.30;;;;;;;20.86;60.34;97810.97;5048496;28;20280;-63
2021/10/26 02:31:06;;;;;;;4.60;4.20;;;;;;;21.67;60.57;97953.66;5048392;28;20197;-63
2021/10/26 02:33:33;;;;;;;5.20;4.70;;;;;;;21.67;60.85;97954.56;5047452;28;20441;-63
2021/10/26 02:36:00;;;;;;;5.43;4.93;;;;;;;21.66;60.68;97960.50;5047376;28;20639;-63
2021/10/26 02:38:26;;;;;;;6.77;4.70;;;;;;;20.72;60.06;97806.16;5048365;28;20327;-63
2021/10/26 02:40:53;;;;;;;5.00;4.60;;;;;;;21.66;60.63;97957.94;5047650;28;20283;-64
2021/10/26 02:43:20;;;;;;;5.30;4.37;;;;;;;21.66;60.64;97946.81;5047570;28;20628;-63
2021/10/26 02:45:47;;;;;;;5.17;4.67;;;;;;;21.34;60.61;97894.53;5046599;28;20287;-63
2021/10/26 02:48:13;;;;;;;5.10;4.60;;;;;;;21.66;60.47;97968.16;5048228;28;20201;-65
2021/10/26 02:50:40;;;;;;;4.77;4.37;;;;;;;21.67;60.32;97976.69;5030406;28;20232;-63
2021/10/26 02:53:07;;;;;;;4.60;4.20;;;;;;;21.67;60.39;97972.47;5047163;28;20240;-64
2021/10/26 02:55:33;;;;;;;5.17;4.67;;;;;;;21.68;60.46;97974.19;5039846;28;20323;-63
2021/10/26 02:58:00;;;;;;;5.30;4.83;;;;;;;21.67;60.29;97971.56;5046960;28;20761;-63
2021/10/26 03:00:26;;;;;;;5.60;5.10;;;;;;;21.67;60.60;97977.56;5029924;28;20288;-63
2021/10/26 03:02:53;;;;;;;5.17;4.77;;;;;;;21.67;60.70;97975.00;5047379;28;20203;-64
2021/10/26 03:05:20;;;;;;;4.93;4.53;;;;;;;21.67;60.53;97972.47;5047615;28;20315;-63
2021/10/26 03:07:47;;;;;;;5.17;4.67;;;;;;;21.68;60.49;97976.75;5047211;28;20224;-64
2021/10/26 03:10:13;;;;;;;4.80;4.33;;;;;;;21.68;60.44;97975.91;5047723;28;20256;-63
2021/10/26 03:12:40;;;;;;;5.07;4.60;;;;;;;21.67;60.66;97972.47;5047037;28;20287;-63
2021/10/26 03:15:07;;;;;;;4.77;4.37;;;;;;;21.51;60.65;97952.28;5047076;28;20263;-64
2021/10/26 03:17:34;;;;;;;4.87;4.47;;;;;;;21.68;60.56;97976.75;5047374;28;20315;-64
2021/10/26 03:20:01;;;;;;;4.77;4.37;;;;;;;21.67;60.48;97984.38;5038442;28;20236;-63
2021/10/26 03:22:27;;;;;;;4.63;4.23;;;;;;;21.67;60.52;97980.13;5044661;28;20243;-64
2021/10/26 03:24:55;;;;;;;4.70;4.30;;;;;;;21.68;60.70;97983.56;5043476;28;20279;-63
2021/10/26 03:27:21;;;;;;;5.00;4.53;;;;;;;21.67;60.32;97980.13;5047527;28;20251;-63
2021/10/26 03:29:49;;;;;;;4.70;4.30;;;;;;;21.67;60.51;97977.56;5046775;28;20209;-63
2021/10/26 03:32:16;;;;;;;5.03;4.60;;;;;;;21.67;60.34;97982.69;5046912;28;20292;-63
2021/10/26 03:34:43;;;;;;;5.00;4.53;;;;;;;21.68;60.88;97992.09;5046666;28;20286;-64
2021/10/26 03:37:10;;;;;;;4.90;4.50;;;;;;;21.68;60.63;97988.69;5046464;28;20288;-63
2021/10/26 03:39:36;;;;;;;4.73;4.33;;;;;;;21.68;60.60;97983.56;5046566;28;20256;-65
2021/10/26 03:42:03;;;;;;;4.90;4.50;;;;;;;21.68;60.69;97993.81;5046629;28;20731;-63
2021/10/26 03:44:30;;;;;;;5.00;4.50;;;;;;;21.68;60.54;98001.47;5044985;28;20307;-63
2021/10/26 03:46:56;;;;;;;4.80;4.40;;;;;;;21.68;60.42;98002.31;5046616;28;20228;-63
2021/10/26 03:49:23;;;;;;;4.53;4.13;;;;;;;21.68;60.57;98014.28;5046737;28;20213;-65
2021/10/26 03:51:50;;;;;;;5.00;4.50;;;;;;;21.68;60.36;98011.72;5028112;28;20239;-63
2021/10/26 03:54:16;;;;;;;4.90;4.50;;;;;;;21.52;60.92;97979.59;5041777;28;20721;-64
2021/10/26 03:56:43;;;;;;;4.73;4.33;;;;;;;21.68;60.49;98010.00;5045791;28;20291;-63
2021/10/26 03:59:10;;;;;;;4.60;4.20;;;;;;;21.69;60.83;98011.78;5046854;28;20654;-63
2021/10/26 04:01:37;;;;;;;4.97;4.57;;;;;;;21.69;60.58;98009.22;5045354;28;20757;-63
2021/10/26 04:04:04;;;;;;;4.53;4.13;;;;;;;21.70;60.60;98015.19;5044575;28;20236;-63
2021/10/26 04:06:32;;;;;;;5.00;4.50;;;;;;;21.70;60.84;98012.63;5045981;28;20291;-63
2021/10/26 04:09:02;;;;;;;5.17;4.70;;;;;;;21.70;60.66;98012.63;5040229;28;20276;-63
2021/10/26 04:11:38;;;;;;;4.80;4.40;;;;;;;21.61;60.59;98004.59;5046422;28;20240;-65
2021/10/26 04:14:04;;;;;;;5.00;4.60;;;;;;;21.70;60.72;98020.28;5035769;28;20247;-64
2021/10/26 04:16:32;;;;;;;4.60;4.20;;;;;;;21.70;60.40;98021.16;5035946;28;20741;-62
2021/10/26 04:18:59;;;;;;;4.80;4.40;;;;;;;21.37;60.84;97965.34;5044007;28;20235;-64
2021/10/26 04:21:26;;;;;;;4.80;4.40;;;;;;;21.71;60.87;98029.72;5042588;28;20762;-63
2021/10/26 04:23:53;;;;;;;4.77;4.37;;;;;;;21.71;60.66;98033.13;5045703;28;20217;-63
2021/10/26 04:26:20;;;;;;;5.00;4.47;;;;;;;21.70;60.60;98021.16;5046249;28;20297;-65
2021/10/26 04:28:46;;;;;;;5.03;4.57;;;;;;;21.71;60.64;98020.34;5045373;28;20297;-63
2021/10/26 04:31:14;;;;;;;4.50;4.10;;;;;;;21.30;60.71;97961.72;5045596;28;20300;-63
2021/10/26 04:33:42;;;;;;;4.27;3.93;;;;;;;21.71;60.59;98034.84;5046632;28;20220;-63
2021/10/26 04:36:09;;;;;;;4.00;3.70;;;;;;;21.70;60.33;98036.53;5045334;28;20237;-63
2021/10/26 04:38:35;;;;;;;4.60;4.30;;;;;;;21.71;60.72;98042.53;5045863;28;20226;-63
2021/10/26 04:41:07;;;;;;;4.30;3.90;;;;;;;21.72;60.63;98034.03;5041888;28;20212;-63
2021/10/26 04:43:34;;;;;;;4.80;4.40;;;;;;;21.72;60.70;98034.03;5034344;28;20312;-62
2021/10/26 04:46:02;;;;;;;4.60;4.20;;;;;;;21.71;60.71;98035.69;5038622;28;20200;-63
2021/10/26 04:48:28;;;;;;;4.40;4.00;;;;;;;21.71;60.81;98038.25;5046156;28;20197;-63
2021/10/26 04:50:55;;;;;;;5.27;4.50;;;;;;;21.71;60.54;98040.81;5044775;28;20211;-64
2021/10/26 04:53:22;;;;;;;4.40;4.07;;;;;;;21.73;60.70;98045.13;5045908;28;20319;-63
2021/10/26 04:55:49;;;;;;;4.60;4.17;;;;;;;21.72;60.64;98051.94;5045680;28;20402;-64
2021/10/26 04:58:16;;;;;;;4.57;4.17;;;;;;;21.71;60.76;98056.16;5046015;28;20320;-63
2021/10/26 05:00:42;;;;;;;4.83;4.43;;;;;;;21.73;60.63;98045.13;5046033;28;20312;-63
2021/10/26 05:03:09;;;;;;;7.70;4.30;;;;;;;21.72;60.11;98044.25;5045203;28;20222;-63
2021/10/26 05:05:36;;;;;;;5.00;4.50;;;;;;;21.71;60.53;98047.63;5045766;28;20935;-64
2021/10/26 05:08:02;;;;;;;5.00;4.40;;;;;;;21.71;60.66;98039.97;5047182;28;20215;-63
2021/10/26 05:10:29;;;;;;;4.80;4.40;;;;;;;21.71;60.87;98045.94;5049505;28;20225;-62
2021/10/26 05:12:56;;;;;;;11.80;5.70;;;;;;;21.69;57.24;98037.34;5050362;28;20639;-63
2021/10/26 05:15:23;;;;;;;6.53;5.83;;;;;;;21.67;53.55;98041.53;5031445;28;20228;-61
2021/10/26 05:17:50;;;;;;;6.50;5.90;;;;;;;21.65;51.55;98050.81;5048764;28;20233;-62
2021/10/26 05:20:18;;;;;;;6.33;5.83;;;;;;;21.61;49.29;98048.97;5047506;28;20629;-63
2021/10/26 05:22:45;;;;;;;7.10;6.50;;;;;;;21.60;48.14;98056.59;5049824;28;20229;-63
2021/10/26 05:25:12;;;;;;;9.33;6.40;;;;;;;20.67;46.95;97899.59;5042390;28;20336;-63
2021/10/26 05:27:39;;;;;;;7.63;6.93;;;;;;;21.56;46.36;98059.84;5038561;28;20240;-63
2021/10/26 05:30:06;;;;;;;7.97;6.70;;;;;;;21.51;46.48;98064.81;5032088;28;20205;-63
2021/10/26 05:32:33;;;;;;;6.93;6.33;;;;;;;21.51;47.62;98067.34;5048970;28;20232;-64
2021/10/26 05:35:00;;;;;;;7.67;6.27;;;;;;;21.50;48.42;98069.84;5031940;28;20662;-64
2021/10/26 05:37:26;;;;;;;7.03;6.43;;;;;;;21.49;49.58;98068.09;5049383;28;21104;-62
2021/10/26 05:39:53;;;;;;;6.20;5.70;;;;;;;21.48;50.47;98064.69;5049160;28;20220;-64
2021/10/26 05:42:19;;;;;;;6.50;6.00;;;;;;;21.49;51.53;98060.41;5047168;28;20324;-63
2021/10/26 05:44:46;;;;;;;7.03;5.80;;;;;;;21.49;52.12;98075.75;5046542;28;20315;-62
2021/10/26 05:47:13;;;;;;;6.40;5.80;;;;;;;21.48;52.14;98077.47;5049288;28;20299;-63
2021/10/26 05:49:40;;;;;;;6.17;5.67;;;;;;;21.48;52.63;98087.69;5049193;28;20228;-64
2021/10/26 05:52:07;;;;;;;5.73;5.33;;;;;;;21.48;52.97;98081.72;5042173;28;20236;-63
2021/10/26 05:54:34;;;;;;;5.83;5.33;;;;;;;21.45;53.10;98079.03;5048831;23;20252;-60
2021/10/26 05:57:00;;;;;;;6.53;5.43;;;;;;;21.46;53.37;98088.44;5024571;28;20236;-62
2021/10/26 05:59:27;;;;;;;5.43;4.97;;;;;;;21.46;53.97;98075.66;5049075;28;20252;-62
2021/10/26 06:01:54;;;;;;;6.03;5.50;;;;;;;21.48;54.49;98076.59;5049080;28;20229;-62
2021/10/26 06:04:20;;;;;;;6.10;5.50;;;;;;;21.49;54.76;98081.75;5047051;28;20224;-61
2021/10/26 06:06:47;;;;;;;5.70;5.20;;;;;;;21.49;54.79;98076.66;5046346;28;20288;-62
2021/10/26 06:09:16;;;;;;;5.73;5.10;;;;;;;21.49;55.12;98079.22;5041783;28;20280;-62
2021/10/26 06:11:45;;;;;;;5.90;4.93;;;;;;;21.46;55.02;98081.66;5045298;28;20228;-61
2021/10/26 06:14:11;;;;;;;8.10;7.13;;;;;;;21.48;51.54;98092.81;5020989;28;20255;-61
2021/10/26 06:16:39;;;;;;;9.10;8.20;;;;;;;21.46;47.54;98098.66;5038651;28;20289;-62
2021/10/26 06:19:06;;;;;;;8.60;7.73;;;;;;;21.43;47.22;98119.88;5041762;28;20319;-62
2021/10/26 06:21:33;;;;;;;8.57;7.67;;;;;;;21.42;47.72;98113.03;5045948;28;20212;-61
2021/10/26 06:24:00;;;;;;;8.50;7.70;;;;;;;21.35;48.40;98108.47;5047707;28;20300;-63
2021/10/26 06:26:26;;;;;;;8.93;6.57;;;;;;;21.37;49.39;98114.53;5027566;28;20618;-61
2021/10/26 06:28:53;;;;;;;9.23;7.03;;;;;;;21.35;49.80;98102.50;5029240;28;20208;-62
2021/10/26 06:31:20;;;;;;;6.90;6.20;;;;;;;21.37;50.83;98111.09;5048108;28;20201;-61
2021/10/26 06:33:47;;;;;;;7.50;6.80;;;;;;;21.32;51.26;98102.41;5020088;28;20198;-62
2021/10/26 06:36:14;;;;;;;7.53;6.83;;;;;;;21.36;51.75;98112.81;5019020;28;20205;-62
2021/10/26 06:38:40;;;;;;;7.73;6.93;;;;;;;21.37;52.12;98114.53;5019503;28;20245;-62
2021/10/26 06:41:07;;;;;;;7.37;6.67;;;;;;;21.37;52.17;98113.66;5033730;28;20220;-61
2021/10/26 06:43:35;;;;;;;6.00;5.50;;;;;;;21.36;52.89;98123.03;5035712;28;20213;-62
2021/10/26 06:46:03;;;;;;;7.60;6.30;;;;;;;21.31;52.86;98132.19;5044701;28;20611;-61
2021/10/26 06:48:29;;;;;;;7.27;6.53;;;;;;;21.37;53.08;98139.22;5029407;28;20749;-61
2021/10/26 06:50:56;;;;;;;6.20;5.60;;;;;;;21.37;53.44;98132.44;5048494;28;20674;-62
2021/10/26 06:53:24;;;;;;;5.90;5.40;;;;;;;21.37;53.62;98145.22;5030231;28;20657;-61
2021/10/26 06:55:51;;;;;;;6.13;5.57;;;;;;;21.33;53.87;98145.91;5044530;28;20260;-61
2021/10/26 06:58:18;;;;;;;5.70;5.20;;;;;;;21.37;54.24;98152.88;5054948;28;20654;-59
2021/10/26 07:00:44;;;;;;;5.97;5.40;;;;;;;21.39;54.17;98152.94;5048042;28;20228;-62
2021/10/26 07:03:11;;;;;;;6.03;5.43;;;;;;;21.37;54.43;98155.44;5046868;28;20200;-62
2021/10/26 07:05:38;;;;;;;6.73;5.70;;;;;;;21.37;54.46;98146.88;5043511;28;20659;-62
2021/10/26 07:08:05;;;;;;;6.20;5.60;;;;;;;21.37;54.76;98152.88;5047859;28;20243;-63
2021/10/26 07:10:32;;;;;;;5.83;5.33;;;;;;;21.22;54.72;98136.94;5046016;28;20691;-61
2021/10/26 07:12:58;;;;;;;5.40;5.00;;;;;;;21.37;54.67;98168.22;5026544;28;20917;-61
2021/10/26 07:15:29;;;;;;;6.43;5.43;;;;;;;21.32;54.84;98159.50;5043064;28;20232;-61
2021/10/26 07:17:55;;;;;;;5.63;5.13;;;;;;;21.38;54.90;98171.66;5045116;28;20201;-60
2021/10/26 07:20:22;;;;;;;5.43;4.97;;;;;;;21.40;55.01;98182.81;5047524;28;20256;-61
2021/10/26 07:22:53;;;;;;;5.80;5.10;;;;;;;21.38;55.10;98184.47;5044593;28;20249;-61
2021/10/26 07:25:20;;;;;;;5.50;5.00;;;;;;;21.38;55.23;98189.56;5046212;28;20294;-63
2021/10/26 07:27:48;;;;;;;5.20;4.70;;;;;;;21.40;55.42;98193.03;5028129;28;20310;-61
2021/10/26 07:30:15;;;;;;;5.53;5.07;;;;;;;21.38;54.03;98192.97;5045704;28;20236;-61
2021/10/26 07:32:42;;;;;;;7.37;6.63;;;;;;;21.36;49.92;98181.84;5044817;28;20243;-61
2021/10/26 07:35:09;;;;;;;10.63;7.47;;;;;;;21.34;48.46;98186.00;5039692;28;20260;-62
2021/10/26 07:37:40;;;;;;;7.33;6.70;;;;;;;21.20;48.54;98166.66;5046047;28;20304;-62
2021/10/26 07:40:07;;;;;;;8.23;6.30;;;;;;;21.33;49.63;98189.38;5050553;28;20221;-63
2021/10/26 07:42:34;;;;;;;7.37;6.57;;;;;;;21.32;50.30;98200.41;5024907;28;20319;-60
2021/10/26 07:45:00;;;;;;;7.73;6.10;;;;;;;21.32;51.07;98197.00;5046114;28;20775;-62
2021/10/26 07:47:27;;;;;;;6.73;6.13;;;;;;;21.32;51.11;98202.09;5044835;28;20245;-61
2021/10/26 07:49:54;;;;;;;6.60;6.00;;;;;;;21.29;51.69;98200.28;5027573;28;20240;-62
2021/10/26 07:52:21;;;;;;;6.13;5.63;;;;;;;21.31;51.86;98196.09;5025307;28;20290;-62
2021/10/26 07:54:55;;;;;;;6.30;5.63;;;;;;;21.31;52.30;98197.78;5027372;28;20232;-62
2021/10/26 07:57:22;;;;;;;6.00;5.50;;;;;;;21.30;52.60;98202.03;5042364;28;20242;-61
2021/10/26 07:59:50;;;;;;;7.87;5.60;;;;;;;21.31;52.63;98208.00;5044804;28;20267;-61
2021/10/26 08:02:17;;;;;;;6.07;5.47;;;;;;;21.30;52.84;98206.28;5041566;28;20241;-62
2021/10/26 08:04:50;;;;;;;6.40;5.80;;;;;;;21.31;53.22;98202.91;5025148;28;20712;-62
2021/10/26 08:07:20;;;;;;;5.53;5.03;;;;;;;21.31;53.37;98205.44;5003836;28;20237;-62
2021/10/26 08:09:47;;;;;;;7.23;5.87;;;;;;;21.30;52.02;98219.94;5028223;28;20225;-62
2021/10/26 08:12:14;;;;;;;9.23;7.70;;;;;;;21.28;48.48;98216.44;5047191;28;20681;-61
2021/10/26 08:14:41;;;;;;;8.23;7.53;;;;;;;21.22;46.66;98202.53;5045994;28;20255;-60
2021/10/26 08:17:08;;;;;;;9.23;8.33;;;;;;;21.23;46.48;98206.84;5003809;28;20209;-62
2021/10/26 08:19:43;;;;;;;9.37;7.57;;;;;;;21.20;46.10;98217.78;5021435;28;20670;-63
2021/10/26 08:22:16;;;;;;;8.20;7.40;;;;;;;21.17;45.74;98217.66;5045977;28;20239;-62
2021/10/26 08:24:46;;;;;;;8.80;8.00;;;;;;;21.15;46.28;98210.75;5046019;28;20361;-62
2021/10/26 08:27:15;;;;;;;8.73;7.93;;;;;;;21.12;46.53;98206.41;5042886;28;20268;-62
2021/10/26 08:29:48;;;;;;;8.70;7.80;;;;;;;21.11;47.68;98207.19;5045570;28;20288;-61
2021/10/26 08:35:30;;;;;;;8.47;7.67;;;;;;;21.08;48.76;98196.00;5044445;28;20221;-61
2021/10/26 08:37:59;;;;;;;9.40;7.33;;;;;;;21.05;49.52;98186.50;5027036;28;20287;-61
2021/10/26 08:40:27;;;;;;;7.30;6.17;;;;;;;21.09;49.91;98185.81;5018454;28;20311;-60
2021/10/26 08:42:56;;;;;;;14.40;6.97;;;;;;;21.06;49.91;98188.25;5028053;28;20605;-62
2021/10/26 08:45:23;;;;;;;7.50;6.80;;;;;;;21.09;50.14;98187.50;5050130;28;20256;-62
2021/10/26 08:47:50;;;;;;;7.07;6.37;;;;;;;21.08;50.28;98196.00;5031777;28;20200;-61
2021/10/26 08:50:18;;;;;;;8.30;6.60;;;;;;;21.08;50.41;98196.00;5053324;28;20200;-62
2021/10/26 08:52:45;;;;;;;7.10;6.50;;;;;;;21.05;50.44;98178.81;5049964;28;20197;-61
2021/10/26 08:55:13;;;;;;;10.13;6.07;;;;;;;21.07;51.29;98186.56;5049937;28;20327;-62
2021/10/26 08:57:40;;;;;;;7.17;6.47;;;;;;;21.10;51.11;98185.00;5032226;28;20228;-62
2021/10/26 09:00:08;;;;;;;6.60;5.90;;;;;;;21.07;51.38;98176.34;5047994;28;20343;-62
2021/10/26 09:02:48;;;;;;;6.73;6.07;;;;;;;21.12;51.62;98180.84;5027744;28;20241;-61
2021/10/26 09:05:17;;;;;;;7.07;6.20;;;;;;;21.12;51.97;98178.28;5010904;28;20228;-61
2021/10/26 09:08:05;;;;;;;6.83;5.90;;;;;;;21.14;52.06;98184.31;5048753;28;20310;-61
2021/10/26 09:10:32;;;;;;;6.73;6.00;;;;;;;21.15;52.34;98182.63;5031084;28;20201;-62
2021/10/26 09:18:40;;;;;;;11.63;6.23;;;;;;;21.13;52.69;98179.13;5011709;28;20243;-62
2021/10/26 09:21:24;;;;;;;8.73;7.83;;;;;;;21.17;51.65;98189.56;5021983;28;20584;-62
2021/10/26 09:23:51;;;;;;;14.63;9.13;;;;;;;21.17;50.74;98188.69;5048464;28;20235;-62
2021/10/26 09:26:19;;;;;;;10.80;8.70;;;;;;;21.16;50.79;98182.69;5047337;28;20232;-62
2021/10/26 09:28:59;;;;;;;10.10;7.30;;;;;;;21.15;51.15;98186.09;5015735;28;20682;-62
2021/10/26 09:31:29;;;;;;;10.40;7.30;;;;;;;21.14;51.49;98186.03;5029388;28;20406;-62
2021/10/26 09:34:04;;;;;;;13.07;7.30;;;;;;;21.16;51.97;98192.03;5033011;28;20234;-62
2021/10/26 09:36:35;;;;;;;14.53;7.13;;;;;;;21.12;52.63;98183.41;5044495;28;20228;-62
2021/10/26 09:39:05;;;;;;;10.43;6.47;;;;;;;21.17;52.64;98193.81;5014818;28;20209;-62
2021/10/26 09:41:34;;;;;;;7.70;6.53;;;;;;;21.13;52.55;98184.25;5046312;28;20232;-62
2021/10/26 09:44:14;;;;;;;10.20;6.87;;;;;;;21.18;52.71;98187.88;5027496;28;20283;-61
2021/10/26 09:46:53;;;;;;;15.40;7.03;;;;;;;21.18;53.06;98190.44;5043924;28;20236;-60
2021/10/26 09:49:23;;;;;;;8.40;6.67;;;;;;;21.15;52.92;98180.09;5049237;28;20222;-61
2021/10/26 09:52:12;;;;;;;7.97;6.77;;;;;;;21.17;53.35;98188.69;5032696;28;20208;-61
2021/10/26 09:54:40;;;;;;;10.27;6.67;;;;;;;21.06;53.05;98164.38;5017037;28;20259;-62
2021/10/26 09:57:12;;;;;;;10.17;6.70;;;;;;;21.21;53.16;98193.13;5030578;28;20655;-62
2021/10/26 09:59:49;;;;;;;9.40;6.60;;;;;;;21.19;52.91;98181.94;5048559;28;20256;-62
2021/10/26 10:02:21;;;;;;;10.50;5.80;;;;;;;21.22;53.38;98187.19;5024916;28;20228;-62
2021/10/26 10:05:04;;;;;;;7.83;6.63;;;;;;;21.22;53.36;98188.06;5035923;28;20220;-61
2021/10/26 10:07:39;;;;;;;7.03;5.90;;;;;;;21.17;53.29;98181.88;5045947;28;20275;-61
2021/10/26 10:10:11;;;;;;;6.83;6.10;;;;;;;21.23;53.44;98192.34;5029589;28;20673;-62
2021/10/26 10:12:37;;;;;;;8.07;5.60;;;;;;;21.20;53.56;98194.78;5007264;28;20202;-63
2021/10/26 10:15:05;;;;;;;14.27;6.53;;;;;;;21.23;53.82;98194.06;5028001;28;20232;-63
2021/10/26 10:17:36;;;;;;;9.00;5.67;;;;;;;21.18;53.53;98186.22;5014605;28;20225;-62
2021/10/26 10:20:13;;;;;;;6.90;6.10;;;;;;;21.22;53.97;98185.50;5045018;28;20304;-60
2021/10/26 10:22:41;;;;;;;11.40;6.43;;;;;;;21.24;53.91;98185.56;5044651;28;20287;-62
2021/10/26 10:25:09;;;;;;;8.93;5.97;;;;;;;21.23;53.78;98184.69;5018272;28;20220;-61
2021/10/26 10:27:38;;;;;;;7.30;5.77;;;;;;;21.14;54.26;98168.13;5044989;28;20776;-61
2021/10/26 10:30:06;;;;;;;6.63;5.33;;;;;;;21.25;54.05;98187.31;5045410;28;20868;-63
2021/10/26 10:32:32;;;;;;;7.97;5.70;;;;;;;21.24;54.47;98178.78;5045970;28;20296;-63
2021/10/26 10:35:00;;;;;;;10.93;6.23;;;;;;;21.26;54.57;98181.41;5047381;28;20221;-62
2021/10/26 10:37:27;;;;;;;10.77;5.97;;;;;;;21.27;54.71;98183.13;5045555;28;20205;-61
2021/10/26 10:40:01;;;;;;;6.67;5.73;;;;;;;21.28;54.77;98184.88;5019605;28;20317;-60
2021/10/26 10:42:30;;;;;;;7.87;5.77;;;;;;;21.28;54.94;98180.66;5031307;28;20205;-62
2021/10/26 10:45:02;;;;;;;7.73;5.80;;;;;;;21.31;55.09;98175.66;5045893;28;20220;-61
2021/10/26 10:47:30;;;;;;;6.40;5.10;;;;;;;21.18;55.13;98155.53;5046551;28;20232;-62
2021/10/26 10:49:57;;;;;;;10.47;5.77;;;;;;;21.32;54.85;98179.94;5029796;28;20742;-61
2021/10/26 10:52:34;;;;;;;10.80;6.17;;;;;;;21.34;55.31;98180.91;5047379;28;20205;-63
2021/10/26 10:55:01;;;;;;;19.30;6.20;;;;;;;21.31;55.32;98170.53;5049405;28;20251;-70
2021/10/26 10:57:32;;;;;;;10.80;6.10;;;;;;;21.37;55.45;98175.00;5010297;28;20775;-62
2021/10/26 11:00:02;;;;;;;10.10;6.20;;;;;;;21.30;55.75;98161.13;5023454;28;20260;-61
2021/10/26 11:02:44;;;;;;;14.43;6.10;;;;;;;21.40;55.55;98172.59;5009235;28;20740;-61
2021/10/26 11:05:29;;;;;;;8.70;5.43;;;;;;;21.41;55.50;98177.75;5028278;28;20224;-60
2021/10/26 11:07:57;;;;;;;12.23;5.87;;;;;;;21.41;55.78;98177.75;5044852;28;20205;-62
2021/10/26 11:10:24;;;;;;;7.67;5.20;;;;;;;21.42;56.03;98174.41;5023054;28;20202;-62
2021/10/26 11:12:52;;;;;;;10.80;5.57;;;;;;;21.35;55.87;98157.06;5023999;28;20201;-61
2021/10/26 11:15:42;;;;;;;7.70;5.37;;;;;;;21.44;56.06;98182.16;5011018;28;20286;-61
2021/10/26 11:18:09;;;;;;;11.03;5.67;;;;;;;21.40;56.00;98173.47;5020702;28;20892;-62
2021/10/26 11:20:36;;;;;;;6.97;5.23;;;;;;;21.44;56.07;98180.44;5045908;28;20528;-63
2021/10/26 11:23:05;;;;;;;9.77;5.00;;;;;;;21.46;56.08;98178.81;5029135;28;20224;-61
2021/10/26 11:25:39;;;;;;;6.60;4.97;;;;;;;21.35;55.77;98161.31;5029168;28;20245;-63
2021/10/26 11:28:17;;;;;;;6.87;5.40;;;;;;;21.47;56.07;98178.00;5013393;28;20291;-62
2021/10/26 11:30:47;;;;;;;8.47;4.77;;;;;;;21.48;55.95;98177.22;5043495;28;20296;-63
2021/10/26 11:33:14;;;;;;;5.70;5.10;;;;;;;21.48;55.96;98174.66;5040658;28;20236;-62
2021/10/26 11:35:47;;;;;;;6.43;4.77;;;;;;;21.49;56.22;98173.84;5028472;28;20229;-61
2021/10/26 11:38:18;;;;;;;9.00;5.20;;;;;;;21.50;56.45;98170.44;5039852;28;20240;-62
2021/10/26 11:41:01;;;;;;;7.37;4.97;;;;;;;21.50;56.51;98167.91;5045831;28;20227;-63
2021/10/26 11:43:28;;;;;;;7.27;5.27;;;;;;;21.51;56.27;98163.66;5046523;28;20236;-63
2021/10/26 11:46:00;;;;;;;6.67;4.77;;;;;;;21.52;56.58;98165.41;5044516;28;20245;-61